sensor_id;sensor_type;location;lat;lon;timestamp;pressure;altitude;pressure_sealevel;temperature;humidity
12215;BME280;6170;42.206;24.142;2023-09-19T00:02:07;99203.13;;;16.29;76.47
12215;BME280;6170;42.206;24.142;2023-09-19T00:04:36;99294.28;;;16.77;76.68
12215;BME280;6170;42.206;24.142;2023-09-19T00:07:05;99210.50;;;16.22;76.78
12215;BME280;6170;42.206;24.142;2023-09-19T00:09:32;99194.38;;;16.15;76.88
12215;BME280;6170;42.206;24.142;2023-09-19T00:12:03;99206.41;;;16.20;77.38
12215;BME280;6170;42.206;24.142;2023-09-19T00:14:30;99278.81;;;16.66;77.29
12215;BME280;6170;42.206;24.142;2023-09-19T00:16:59;99279.28;;;16.63;77.38
12215;BME280;6170;42.206;24.142;2023-09-19T00:19:31;99185.75;;;16.07;77.40
12215;BME280;6170;42.206;24.142;2023-09-19T00:21:59;99277.16;;;16.65;77.22
12215;BME280;6170;42.206;24.142;2023-09-19T00:24:26;99275.75;;;16.62;77.30
12215;BME280;6170;42.206;24.142;2023-09-19T00:26:54;99188.38;;;16.13;77.11
12215;BME280;6170;42.206;24.142;2023-09-19T00:29:22;99190.41;;;16.18;76.92
12215;BME280;6170;42.206;24.142;2023-09-19T00:31:49;99190.56;;;16.05;77.39
12215;BME280;6170;42.206;24.142;2023-09-19T00:34:16;99182.09;;;16.01;77.46
12215;BME280;6170;42.206;24.142;2023-09-19T00:36:43;99191.47;;;15.99;77.89
12215;BME280;6170;42.206;24.142;2023-09-19T00:39:12;99187.19;;;16.09;77.83
12215;BME280;6170;42.206;24.142;2023-09-19T00:41:39;99156.06;;;15.70;77.85
12215;BME280;6170;42.206;24.142;2023-09-19T00:44:06;99244.59;;;16.41;77.34
12215;BME280;6170;42.206;24.142;2023-09-19T00:46:33;99274.16;;;16.54;77.75
12215;BME280;6170;42.206;24.142;2023-09-19T00:49:01;99188.44;;;16.07;78.03
12215;BME280;6170;42.206;24.142;2023-09-19T00:51:28;99272.03;;;16.56;77.71
12215;BME280;6170;42.206;24.142;2023-09-19T00:53:55;99169.78;;;15.87;77.80
12215;BME280;6170;42.206;24.142;2023-09-19T00:56:26;99264.47;;;16.47;77.09
12215;BME280;6170;42.206;24.142;2023-09-19T00:58:53;99182.84;;;15.90;77.70
12215;BME280;6170;42.206;24.142;2023-09-19T01:01:20;99246.38;;;16.29;77.47
12215;BME280;6170;42.206;24.142;2023-09-19T01:03:47;99261.09;;;16.33;78.22
12215;BME280;6170;42.206;24.142;2023-09-19T01:06:14;99190.28;;;15.77;78.29
12215;BME280;6170;42.206;24.142;2023-09-19T01:08:41;99261.94;;;16.34;78.62
12215;BME280;6170;42.206;24.142;2023-09-19T01:11:15;99179.72;;;15.75;78.25
12215;BME280;6170;42.206;24.142;2023-09-19T01:13:56;99217.66;;;15.98;78.31
12215;BME280;6170;42.206;24.142;2023-09-19T01:16:32;99198.16;;;15.78;78.45
12215;BME280;6170;42.206;24.142;2023-09-19T01:19:28;99152.25;;;15.60;78.05
12215;BME280;6170;42.206;24.142;2023-09-19T01:22:07;99264.66;;;16.15;78.92
12215;BME280;6170;42.206;24.142;2023-09-19T01:25:13;99172.44;;;15.57;78.83
12215;BME280;6170;42.206;24.142;2023-09-19T01:28:06;99254.41;;;16.06;79.49
12215;BME280;6170;42.206;24.142;2023-09-19T01:30:40;99171.81;;;15.55;79.13
12215;BME280;6170;42.206;24.142;2023-09-19T01:33:09;99255.22;;;16.06;79.37
12215;BME280;6170;42.206;24.142;2023-09-19T01:35:37;99176.28;;;15.43;79.60
12215;BME280;6170;42.206;24.142;2023-09-19T01:38:04;99254.66;;;15.98;79.43
12215;BME280;6170;42.206;24.142;2023-09-19T01:40:35;99168.53;;;15.53;79.30
12215;BME280;6170;42.206;24.142;2023-09-19T01:43:09;99152.28;;;15.35;79.46
12215;BME280;6170;42.206;24.142;2023-09-19T01:45:45;99168.28;;;15.55;79.19
12215;BME280;6170;42.206;24.142;2023-09-19T01:48:20;99169.06;;;15.37;80.17
12215;BME280;6170;42.206;24.142;2023-09-19T01:50:55;99166.16;;;15.39;79.69
12215;BME280;6170;42.206;24.142;2023-09-19T01:53:27;99240.44;;;15.91;80.52
12215;BME280;6170;42.206;24.142;2023-09-19T01:55:57;99157.00;;;15.21;80.03
12215;BME280;6170;42.206;24.142;2023-09-19T01:58:29;99157.38;;;15.25;80.13
12215;BME280;6170;42.206;24.142;2023-09-19T02:01:00;99152.44;;;15.22;80.42
12215;BME280;6170;42.206;24.142;2023-09-19T02:03:29;99155.72;;;15.24;81.00
12215;BME280;6170;42.206;24.142;2023-09-19T02:05:57;99175.41;;;15.31;80.95
12215;BME280;6170;42.206;24.142;2023-09-19T02:08:24;99239.31;;;15.62;80.74
12215;BME280;6170;42.206;24.142;2023-09-19T02:10:51;99239.06;;;15.63;81.11
12215;BME280;6170;42.206;24.142;2023-09-19T02:13:18;99154.13;;;15.16;80.46
12215;BME280;6170;42.206;24.142;2023-09-19T02:15:46;99153.34;;;15.09;81.10
12215;BME280;6170;42.206;24.142;2023-09-19T02:18:14;99153.81;;;15.06;81.49
12215;BME280;6170;42.206;24.142;2023-09-19T02:20:42;99148.75;;;15.16;80.50
12215;BME280;6170;42.206;24.142;2023-09-19T02:23:10;99154.66;;;15.07;80.84
12215;BME280;6170;42.206;24.142;2023-09-19T02:25:37;99156.69;;;15.11;81.37
12215;BME280;6170;42.206;24.142;2023-09-19T02:28:05;99142.47;;;14.98;81.67
12215;BME280;6170;42.206;24.142;2023-09-19T02:30:34;99237.03;;;15.59;81.34
12215;BME280;6170;42.206;24.142;2023-09-19T02:33:01;99158.53;;;15.11;81.49
12215;BME280;6170;42.206;24.142;2023-09-19T02:35:30;99140.16;;;15.01;81.44
12215;BME280;6170;42.206;24.142;2023-09-19T02:38:00;99145.72;;;15.06;81.55
12215;BME280;6170;42.206;24.142;2023-09-19T02:40:27;99140.97;;;15.02;81.55
12215;BME280;6170;42.206;24.142;2023-09-19T02:42:55;99145.56;;;15.01;81.03
12215;BME280;6170;42.206;24.142;2023-09-19T02:45:24;99152.53;;;14.91;81.13
12215;BME280;6170;42.206;24.142;2023-09-19T02:47:51;99150.81;;;14.71;81.95
12215;BME280;6170;42.206;24.142;2023-09-19T02:50:18;99226.41;;;14.90;82.59
12215;BME280;6170;42.206;24.142;2023-09-19T02:52:47;99229.56;;;14.87;83.90
12215;BME280;6170;42.206;24.142;2023-09-19T02:55:15;99152.94;;;14.31;83.83
12215;BME280;6170;42.206;24.142;2023-09-19T02:57:45;99143.41;;;14.29;83.47
12215;BME280;6170;42.206;24.142;2023-09-19T03:00:13;99141.97;;;14.26;83.25
12215;BME280;6170;42.206;24.142;2023-09-19T03:02:40;99165.78;;;14.29;84.02
12215;BME280;6170;42.206;24.142;2023-09-19T03:05:08;99148.16;;;13.95;84.01
12215;BME280;6170;42.206;24.142;2023-09-19T03:07:37;99132.03;;;13.89;83.97
12215;BME280;6170;42.206;24.142;2023-09-19T03:10:06;99229.75;;;14.60;83.82
12215;BME280;6170;42.206;24.142;2023-09-19T03:12:34;99161.16;;;14.05;83.87
12215;BME280;6170;42.206;24.142;2023-09-19T03:15:02;99137.59;;;13.94;84.26
12215;BME280;6170;42.206;24.142;2023-09-19T03:17:29;99128.81;;;13.67;84.91
12215;BME280;6170;42.206;24.142;2023-09-19T03:19:56;99209.59;;;14.25;85.09
12215;BME280;6170;42.206;24.142;2023-09-19T03:22:23;99135.84;;;13.75;84.83
12215;BME280;6170;42.206;24.142;2023-09-19T03:24:51;99128.53;;;13.82;84.72
12215;BME280;6170;42.206;24.142;2023-09-19T03:27:20;99211.00;;;14.27;84.23
12215;BME280;6170;42.206;24.142;2023-09-19T03:29:47;99132.69;;;13.78;84.40
12215;BME280;6170;42.206;24.142;2023-09-19T03:32:14;99211.22;;;14.26;84.84
12215;BME280;6170;42.206;24.142;2023-09-19T03:34:41;99141.81;;;13.77;84.94
12215;BME280;6170;42.206;24.142;2023-09-19T03:37:09;99211.59;;;14.29;84.89
12215;BME280;6170;42.206;24.142;2023-09-19T03:39:36;99160.22;;;13.86;84.78
12215;BME280;6170;42.206;24.142;2023-09-19T03:42:03;99137.09;;;13.66;85.30
12215;BME280;6170;42.206;24.142;2023-09-19T03:44:32;99219.94;;;14.28;85.18
12215;BME280;6170;42.206;24.142;2023-09-19T03:46:58;99138.78;;;13.67;85.33
12215;BME280;6170;42.206;24.142;2023-09-19T03:49:25;99142.50;;;13.66;84.71
12215;BME280;6170;42.206;24.142;2023-09-19T03:51:52;99155.47;;;13.82;84.94
12215;BME280;6170;42.206;24.142;2023-09-19T03:54:19;99107.09;;;13.62;85.32
12215;BME280;6170;42.206;24.142;2023-09-19T03:56:46;99222.69;;;14.59;85.22
12215;BME280;6170;42.206;24.142;2023-09-19T03:59:13;99147.75;;;14.30;84.75
12215;BME280;6170;42.206;24.142;2023-09-19T04:01:41;99233.97;;;14.74;84.67
12215;BME280;6170;42.206;24.142;2023-09-19T04:04:08;99144.59;;;14.39;84.11
12215;BME280;6170;42.206;24.142;2023-09-19T04:06:35;99151.78;;;14.52;83.58
12215;BME280;6170;42.206;24.142;2023-09-19T04:09:02;99121.63;;;14.37;83.05
12215;BME280;6170;42.206;24.142;2023-09-19T04:11:32;99160.94;;;14.51;83.43
12215;BME280;6170;42.206;24.142;2023-09-19T04:13:59;99241.56;;;14.91;83.57
12215;BME280;6170;42.206;24.142;2023-09-19T04:16:26;99160.31;;;14.49;83.36
12215;BME280;6170;42.206;24.142;2023-09-19T04:18:54;99126.69;;;14.20;83.54
12215;BME280;6170;42.206;24.142;2023-09-19T04:21:21;99176.38;;;14.62;83.79
12215;BME280;6170;42.206;24.142;2023-09-19T04:23:48;99169.13;;;14.63;83.20
12215;BME280;6170;42.206;24.142;2023-09-19T04:26:15;99170.34;;;14.67;82.72
12215;BME280;6170;42.206;24.142;2023-09-19T04:28:43;99238.47;;;15.12;82.95
12215;BME280;6170;42.206;24.142;2023-09-19T04:31:10;99158.34;;;14.63;83.04
12215;BME280;6170;42.206;24.142;2023-09-19T04:33:37;99161.38;;;14.73;82.95
12215;BME280;6170;42.206;24.142;2023-09-19T04:36:06;99159.38;;;14.62;83.50
12215;BME280;6170;42.206;24.142;2023-09-19T04:38:33;99157.69;;;14.67;83.21
12215;BME280;6170;42.206;24.142;2023-09-19T04:41:00;99165.66;;;14.80;82.54
12215;BME280;6170;42.206;24.142;2023-09-19T04:43:26;99238.91;;;15.34;82.43
12215;BME280;6170;42.206;24.142;2023-09-19T04:45:54;99147.78;;;14.86;81.77
12215;BME280;6170;42.206;24.142;2023-09-19T04:48:21;99143.22;;;14.87;82.20
12215;BME280;6170;42.206;24.142;2023-09-19T04:50:50;99223.16;;;15.55;81.89
12215;BME280;6170;42.206;24.142;2023-09-19T04:53:19;99151.69;;;15.33;81.56
12215;BME280;6170;42.206;24.142;2023-09-19T04:55:50;99163.34;;;15.70;79.63
12215;BME280;6170;42.206;24.142;2023-09-19T04:58:18;99152.94;;;16.03;78.88
12215;BME280;6170;42.206;24.142;2023-09-19T05:00:45;99172.41;;;16.53;76.11
12215;BME280;6170;42.206;24.142;2023-09-19T05:03:12;99166.63;;;16.91;75.74
12215;BME280;6170;42.206;24.142;2023-09-19T05:05:38;99235.19;;;17.62;75.21
12215;BME280;6170;42.206;24.142;2023-09-19T05:08:08;99177.91;;;17.81;73.58
12215;BME280;6170;42.206;24.142;2023-09-19T05:10:36;99167.81;;;18.33;72.16
12215;BME280;6170;42.206;24.142;2023-09-19T05:13:04;99174.09;;;18.79;70.88
12215;BME280;6170;42.206;24.142;2023-09-19T05:15:33;99240.63;;;19.43;69.84
12215;BME280;6170;42.206;24.142;2023-09-19T05:18:01;99172.22;;;19.46;68.34
12215;BME280;6170;42.206;24.142;2023-09-19T05:20:28;99239.63;;;20.26;68.04
12215;BME280;6170;42.206;24.142;2023-09-19T05:22:58;99171.97;;;20.13;66.73
12215;BME280;6170;42.206;24.142;2023-09-19T05:25:27;99234.59;;;20.88;66.08
12215;BME280;6170;42.206;24.142;2023-09-19T05:27:57;99163.34;;;20.70;64.42
12215;BME280;6170;42.206;24.142;2023-09-19T05:30:24;99232.91;;;20.82;65.65
12215;BME280;6170;42.206;24.142;2023-09-19T05:32:53;99156.34;;;20.03;65.68
12215;BME280;6170;42.206;24.142;2023-09-19T05:35:20;99159.44;;;20.60;64.57
12215;BME280;6170;42.206;24.142;2023-09-19T05:37:48;99133.72;;;20.25;64.90
12215;BME280;6170;42.206;24.142;2023-09-19T05:40:16;99128.31;;;20.51;64.77
12215;BME280;6170;42.206;24.142;2023-09-19T05:42:44;99154.41;;;21.11;65.01
12215;BME280;6170;42.206;24.142;2023-09-19T05:45:13;99227.34;;;21.31;63.38
12215;BME280;6170;42.206;24.142;2023-09-19T05:47:44;99151.28;;;20.92;64.33
12215;BME280;6170;42.206;24.142;2023-09-19T05:50:12;99170.28;;;21.61;62.94
12215;BME280;6170;42.206;24.142;2023-09-19T05:52:40;99150.34;;;21.50;62.10
12215;BME280;6170;42.206;24.142;2023-09-19T05:55:09;99127.97;;;21.12;62.95
12215;BME280;6170;42.206;24.142;2023-09-19T05:57:37;99137.94;;;20.96;63.55
12215;BME280;6170;42.206;24.142;2023-09-19T06:00:06;99139.56;;;20.60;64.88
12215;BME280;6170;42.206;24.142;2023-09-19T06:02:37;99219.28;;;20.55;66.02
12215;BME280;6170;42.206;24.142;2023-09-19T06:05:04;99086.25;;;20.10;65.52
12215;BME280;6170;42.206;24.142;2023-09-19T06:07:35;99134.56;;;20.25;65.33
12215;BME280;6170;42.206;24.142;2023-09-19T06:10:03;99213.19;;;20.70;65.58
12215;BME280;6170;42.206;24.142;2023-09-19T06:12:33;99143.94;;;20.12;65.48
12215;BME280;6170;42.206;24.142;2023-09-19T06:15:03;99147.00;;;19.94;67.74
12215;BME280;6170;42.206;24.142;2023-09-19T06:17:31;99152.16;;;20.17;66.81
12215;BME280;6170;42.206;24.142;2023-09-19T06:19:59;99130.25;;;20.56;66.14
12215;BME280;6170;42.206;24.142;2023-09-19T06:22:27;99143.53;;;20.79;65.55
12215;BME280;6170;42.206;24.142;2023-09-19T06:24:54;99203.78;;;21.51;64.56
12215;BME280;6170;42.206;24.142;2023-09-19T06:27:21;99130.56;;;21.75;63.60
12215;BME280;6170;42.206;24.142;2023-09-19T06:29:48;99197.38;;;22.35;63.26
12215;BME280;6170;42.206;24.142;2023-09-19T06:32:15;99137.13;;;22.72;59.74
12215;BME280;6170;42.206;24.142;2023-09-19T06:34:42;99093.38;;;22.42;60.67
12215;BME280;6170;42.206;24.142;2023-09-19T06:37:13;99115.50;;;23.11;58.58
12215;BME280;6170;42.206;24.142;2023-09-19T06:39:40;99195.00;;;23.75;57.79
12215;BME280;6170;42.206;24.142;2023-09-19T06:42:07;99121.78;;;23.21;58.05
12215;BME280;6170;42.206;24.142;2023-09-19T06:44:34;99120.41;;;23.44;57.97
12215;BME280;6170;42.206;24.142;2023-09-19T06:47:01;99096.81;;;24.12;56.41
12215;BME280;6170;42.206;24.142;2023-09-19T06:49:28;99125.88;;;24.08;57.12
12215;BME280;6170;42.206;24.142;2023-09-19T06:51:56;99179.22;;;24.70;56.15
12215;BME280;6170;42.206;24.142;2023-09-19T06:54:25;99109.25;;;22.95;58.30
12215;BME280;6170;42.206;24.142;2023-09-19T06:56:56;99109.50;;;23.14;58.01
12215;BME280;6170;42.206;24.142;2023-09-19T06:59:24;99117.13;;;24.06;58.17
12215;BME280;6170;42.206;24.142;2023-09-19T07:01:51;99190.13;;;24.36;55.61
12215;BME280;6170;42.206;24.142;2023-09-19T07:04:18;99115.47;;;23.26;58.62
12215;BME280;6170;42.206;24.142;2023-09-19T07:06:49;99131.56;;;23.58;56.71
12215;BME280;6170;42.206;24.142;2023-09-19T07:09:16;99131.66;;;24.02;57.07
12215;BME280;6170;42.206;24.142;2023-09-19T07:11:46;99116.50;;;23.65;59.01
12215;BME280;6170;42.206;24.142;2023-09-19T07:14:13;99096.06;;;24.07;57.49
12215;BME280;6170;42.206;24.142;2023-09-19T07:16:40;99130.28;;;24.53;56.95
12215;BME280;6170;42.206;24.142;2023-09-19T07:19:10;99137.53;;;24.34;57.03
12215;BME280;6170;42.206;24.142;2023-09-19T07:21:36;99184.91;;;24.35;58.00
12215;BME280;6170;42.206;24.142;2023-09-19T07:24:04;99102.84;;;23.60;59.29
12215;BME280;6170;42.206;24.142;2023-09-19T07:26:33;99106.72;;;23.29;58.47
12215;BME280;6170;42.206;24.142;2023-09-19T07:29:01;99111.06;;;23.55;60.14
12215;BME280;6170;42.206;24.142;2023-09-19T07:31:29;99173.19;;;24.73;58.53
12215;BME280;6170;42.206;24.142;2023-09-19T07:33:56;99104.19;;;24.22;60.73
12215;BME280;6170;42.206;24.142;2023-09-19T07:36:23;99088.69;;;24.51;57.80
12215;BME280;6170;42.206;24.142;2023-09-19T07:38:50;99093.53;;;24.59;56.61
12215;BME280;6170;42.206;24.142;2023-09-19T07:41:17;99106.66;;;24.24;55.00
12215;BME280;6170;42.206;24.142;2023-09-19T07:43:43;99152.63;;;24.71;58.79
12215;BME280;6170;42.206;24.142;2023-09-19T07:46:12;99078.56;;;24.47;55.78
12215;BME280;6170;42.206;24.142;2023-09-19T07:48:39;99161.34;;;24.78;56.93
12215;BME280;6170;42.206;24.142;2023-09-19T07:51:06;99105.38;;;24.50;57.82
12215;BME280;6170;42.206;24.142;2023-09-19T07:53:34;99138.66;;;24.72;57.20
12215;BME280;6170;42.206;24.142;2023-09-19T07:56:03;99116.16;;;25.09;54.79
12215;BME280;6170;42.206;24.142;2023-09-19T07:58:30;99082.66;;;25.12;54.32
12215;BME280;6170;42.206;24.142;2023-09-19T08:01:03;99149.28;;;26.36;53.80
12215;BME280;6170;42.206;24.142;2023-09-19T08:03:31;99084.69;;;25.30;52.67
12215;BME280;6170;42.206;24.142;2023-09-19T08:05:58;99080.84;;;25.55;52.60
12215;BME280;6170;42.206;24.142;2023-09-19T08:08:26;99067.03;;;25.84;53.48
12215;BME280;6170;42.206;24.142;2023-09-19T08:10:53;99077.22;;;25.07;53.87
12215;BME280;6170;42.206;24.142;2023-09-19T08:13:22;99147.84;;;25.20;53.25
12215;BME280;6170;42.206;24.142;2023-09-19T08:15:50;99077.84;;;24.65;54.03
12215;BME280;6170;42.206;24.142;2023-09-19T08:18:18;99077.97;;;24.55;54.63
12215;BME280;6170;42.206;24.142;2023-09-19T08:20:52;99044.91;;;24.41;54.24
12215;BME280;6170;42.206;24.142;2023-09-19T08:23:19;99139.56;;;24.96;54.27
12215;BME280;6170;42.206;24.142;2023-09-19T08:25:46;99058.03;;;24.78;54.06
12215;BME280;6170;42.206;24.142;2023-09-19T08:28:13;99069.66;;;25.46;54.36
12215;BME280;6170;42.206;24.142;2023-09-19T08:30:45;99138.34;;;26.31;52.57
12215;BME280;6170;42.206;24.142;2023-09-19T08:33:11;99039.31;;;25.38;53.15
12215;BME280;6170;42.206;24.142;2023-09-19T08:35:40;99124.59;;;26.69;51.23
12215;BME280;6170;42.206;24.142;2023-09-19T08:38:09;99125.41;;;27.20;50.17
12215;BME280;6170;42.206;24.142;2023-09-19T08:40:37;99049.25;;;27.02;48.46
12215;BME280;6170;42.206;24.142;2023-09-19T08:43:05;99114.53;;;26.03;50.21
12215;BME280;6170;42.206;24.142;2023-09-19T08:45:33;99050.63;;;25.79;51.88
12215;BME280;6170;42.206;24.142;2023-09-19T08:48:17;99059.63;;;25.37;55.13
12215;BME280;6170;42.206;24.142;2023-09-19T08:50:49;99114.41;;;24.84;53.07
12215;BME280;6170;42.206;24.142;2023-09-19T08:53:26;99043.94;;;24.22;51.21
12215;BME280;6170;42.206;24.142;2023-09-19T08:55:59;99118.69;;;24.67;55.36
12215;BME280;6170;42.206;24.142;2023-09-19T08:58:31;99109.66;;;25.00;54.24
12215;BME280;6170;42.206;24.142;2023-09-19T09:01:01;99036.84;;;24.84;53.31
12215;BME280;6170;42.206;24.142;2023-09-19T09:03:32;99046.03;;;25.03;51.84
12215;BME280;6170;42.206;24.142;2023-09-19T09:06:00;99095.91;;;24.71;53.64
12215;BME280;6170;42.206;24.142;2023-09-19T09:08:31;99021.63;;;25.01;53.80
12215;BME280;6170;42.206;24.142;2023-09-19T09:10:58;99007.78;;;25.59;50.95
12215;BME280;6170;42.206;24.142;2023-09-19T09:13:25;99014.06;;;26.02;50.81
12215;BME280;6170;42.206;24.142;2023-09-19T09:15:53;99030.19;;;26.27;52.39
12215;BME280;6170;42.206;24.142;2023-09-19T09:18:20;99020.38;;;25.84;52.81
12215;BME280;6170;42.206;24.142;2023-09-19T09:20:48;99010.78;;;26.38;51.79
12215;BME280;6170;42.206;24.142;2023-09-19T09:23:15;99018.84;;;26.80;51.27
12215;BME280;6170;42.206;24.142;2023-09-19T09:25:50;99016.09;;;26.48;52.50
12215;BME280;6170;42.206;24.142;2023-09-19T09:28:23;99017.63;;;26.21;52.33
12215;BME280;6170;42.206;24.142;2023-09-19T09:30:50;99072.09;;;26.52;51.03
12215;BME280;6170;42.206;24.142;2023-09-19T09:33:17;99005.13;;;25.54;50.84
12215;BME280;6170;42.206;24.142;2023-09-19T09:35:48;99009.66;;;25.64;52.96
12215;BME280;6170;42.206;24.142;2023-09-19T09:38:18;99069.34;;;25.96;52.96
12215;BME280;6170;42.206;24.142;2023-09-19T09:40:50;98993.66;;;25.47;52.21
12215;BME280;6170;42.206;24.142;2023-09-19T09:43:29;99000.69;;;25.34;51.91
12215;BME280;6170;42.206;24.142;2023-09-19T09:46:11;99063.47;;;25.83;51.38
12215;BME280;6170;42.206;24.142;2023-09-19T09:49:10;99060.97;;;25.16;53.26
12215;BME280;6170;42.206;24.142;2023-09-19T09:51:59;98991.19;;;25.03;52.04
12215;BME280;6170;42.206;24.142;2023-09-19T09:54:27;99054.38;;;26.07;53.19
12215;BME280;6170;42.206;24.142;2023-09-19T09:57:01;98984.34;;;25.24;52.48
12215;BME280;6170;42.206;24.142;2023-09-19T09:59:46;98995.09;;;24.97;51.66
12215;BME280;6170;42.206;24.142;2023-09-19T10:02:15;98959.91;;;24.51;54.44
12215;BME280;6170;42.206;24.142;2023-09-19T10:04:49;98982.91;;;25.74;51.72
12215;BME280;6170;42.206;24.142;2023-09-19T10:07:28;99052.94;;;26.09;52.19
12215;BME280;6170;42.206;24.142;2023-09-19T10:10:00;98970.19;;;25.36;52.29
12215;BME280;6170;42.206;24.142;2023-09-19T10:12:44;98960.97;;;24.79;51.92
12215;BME280;6170;42.206;24.142;2023-09-19T10:15:14;98957.63;;;24.87;52.50
12215;BME280;6170;42.206;24.142;2023-09-19T10:17:43;99029.94;;;25.86;54.15
12215;BME280;6170;42.206;24.142;2023-09-19T10:20:15;98961.91;;;25.22;52.94
12215;BME280;6170;42.206;24.142;2023-09-19T10:23:06;98957.13;;;25.09;54.93
12215;BME280;6170;42.206;24.142;2023-09-19T10:25:37;98961.63;;;25.66;55.25
12215;BME280;6170;42.206;24.142;2023-09-19T10:28:09;98949.13;;;24.89;54.38
12215;BME280;6170;42.206;24.142;2023-09-19T10:30:38;98947.50;;;25.12;55.12
12215;BME280;6170;42.206;24.142;2023-09-19T10:33:09;99015.06;;;25.26;53.35
12215;BME280;6170;42.206;24.142;2023-09-19T10:35:38;98950.44;;;24.68;53.15
12215;BME280;6170;42.206;24.142;2023-09-19T10:38:07;98937.34;;;24.31;54.88
12215;BME280;6170;42.206;24.142;2023-09-19T10:40:37;98946.59;;;24.92;52.16
12215;BME280;6170;42.206;24.142;2023-09-19T10:43:12;98916.47;;;25.35;52.99
12215;BME280;6170;42.206;24.142;2023-09-19T10:45:41;98943.91;;;25.35;53.92
12215;BME280;6170;42.206;24.142;2023-09-19T10:48:10;98937.44;;;25.26;54.68
12215;BME280;6170;42.206;24.142;2023-09-19T10:50:44;98942.03;;;25.30;53.35
12215;BME280;6170;42.206;24.142;2023-09-19T10:53:14;98935.97;;;25.33;52.04
12215;BME280;6170;42.206;24.142;2023-09-19T10:55:50;98934.53;;;25.17;52.07
12215;BME280;6170;42.206;24.142;2023-09-19T10:58:31;98928.09;;;24.79;53.23
12215;BME280;6170;42.206;24.142;2023-09-19T11:01:00;98920.34;;;25.10;52.33
12215;BME280;6170;42.206;24.142;2023-09-19T11:03:32;98988.06;;;25.76;51.79
12215;BME280;6170;42.206;24.142;2023-09-19T11:06:04;98927.19;;;25.74;52.74
12215;BME280;6170;42.206;24.142;2023-09-19T11:08:30;98917.84;;;25.56;51.50
12215;BME280;6170;42.206;24.142;2023-09-19T11:10:59;98897.56;;;25.33;52.04
12215;BME280;6170;42.206;24.142;2023-09-19T11:13:30;98907.03;;;25.41;51.42
12215;BME280;6170;42.206;24.142;2023-09-19T11:16:04;98976.06;;;25.29;51.18
12215;BME280;6170;42.206;24.142;2023-09-19T11:18:53;98976.59;;;25.74;52.06
12215;BME280;6170;42.206;24.142;2023-09-19T11:21:51;98883.75;;;25.62;51.13
12215;BME280;6170;42.206;24.142;2023-09-19T11:24:32;98965.97;;;26.23;51.05
12215;BME280;6170;42.206;24.142;2023-09-19T11:27:15;98893.47;;;26.06;51.31
12215;BME280;6170;42.206;24.142;2023-09-19T11:29:44;98913.88;;;26.00;49.12
12215;BME280;6170;42.206;24.142;2023-09-19T11:32:12;98893.13;;;25.75;49.23
12215;BME280;6170;42.206;24.142;2023-09-19T11:34:42;98945.44;;;26.34;49.73
12215;BME280;6170;42.206;24.142;2023-09-19T11:40:13;98945.91;;;26.69;50.63
12215;BME280;6170;42.206;24.142;2023-09-19T11:42:43;98881.16;;;26.17;48.47
12215;BME280;6170;42.206;24.142;2023-09-19T11:48:24;98937.13;;;26.99;47.61
12215;BME280;6170;42.206;24.142;2023-09-19T11:50:52;98874.56;;;26.91;49.01
12215;BME280;6170;42.206;24.142;2023-09-19T11:53:21;98876.63;;;26.99;49.76
12215;BME280;6170;42.206;24.142;2023-09-19T11:55:49;98866.22;;;27.46;47.22
12215;BME280;6170;42.206;24.142;2023-09-19T11:58:18;98854.31;;;27.37;47.57
12215;BME280;6170;42.206;24.142;2023-09-19T12:00:45;98916.81;;;27.09;49.09
12215;BME280;6170;42.206;24.142;2023-09-19T12:03:13;98772.63;;;26.06;48.09
12215;BME280;6170;42.206;24.142;2023-09-19T12:05:42;98845.81;;;26.29;48.62
12215;BME280;6170;42.206;24.142;2023-09-19T12:08:09;98853.25;;;26.83;49.44
12215;BME280;6170;42.206;24.142;2023-09-19T12:10:45;98905.22;;;26.98;47.76
12215;BME280;6170;42.206;24.142;2023-09-19T12:13:16;98829.34;;;26.43;47.08
12215;BME280;6170;42.206;24.142;2023-09-19T12:15:43;98895.06;;;26.99;48.84
12215;BME280;6170;42.206;24.142;2023-09-19T12:18:26;98810.34;;;26.00;49.23
12215;BME280;6170;42.206;24.142;2023-09-19T12:20:55;98836.78;;;26.28;48.39
12215;BME280;6170;42.206;24.142;2023-09-19T12:23:23;98889.41;;;26.63;50.48
12215;BME280;6170;42.206;24.142;2023-09-19T12:25:51;98816.94;;;26.45;50.90
12215;BME280;6170;42.206;24.142;2023-09-19T12:28:22;98814.06;;;26.23;50.15
12215;BME280;6170;42.206;24.142;2023-09-19T12:30:52;98815.59;;;26.43;51.73
12215;BME280;6170;42.206;24.142;2023-09-19T12:33:21;98809.28;;;26.56;49.25
12215;BME280;6170;42.206;24.142;2023-09-19T12:35:51;98872.75;;;27.50;48.11
12215;BME280;6170;42.206;24.142;2023-09-19T12:38:26;98808.13;;;27.11;47.35
12215;BME280;6170;42.206;24.142;2023-09-19T12:40:55;98873.47;;;27.78;48.14
12215;BME280;6170;42.206;24.142;2023-09-19T12:43:25;98810.19;;;26.92;47.05
12215;BME280;6170;42.206;24.142;2023-09-19T12:45:53;98779.66;;;27.30;47.38
12215;BME280;6170;42.206;24.142;2023-09-19T12:48:23;98799.00;;;27.83;47.29
12215;BME280;6170;42.206;24.142;2023-09-19T12:51:04;98861.13;;;28.20;47.88
12215;BME280;6170;42.206;24.142;2023-09-19T12:53:35;98858.53;;;28.45;46.88
12215;BME280;6170;42.206;24.142;2023-09-19T12:56:06;98786.59;;;27.72;46.22
12215;BME280;6170;42.206;24.142;2023-09-19T12:58:47;98843.44;;;27.67;47.15
12215;BME280;6170;42.206;24.142;2023-09-19T13:01:14;98746.50;;;26.49;45.71
12215;BME280;6170;42.206;24.142;2023-09-19T13:03:41;98764.13;;;26.34;48.75
12215;BME280;6170;42.206;24.142;2023-09-19T13:06:08;98830.16;;;26.98;47.12
12215;BME280;6170;42.206;24.142;2023-09-19T13:08:42;98827.13;;;26.72;47.97
12215;BME280;6170;42.206;24.142;2023-09-19T13:11:19;98748.03;;;26.55;48.82
12215;BME280;6170;42.206;24.142;2023-09-19T13:13:49;98752.28;;;26.89;48.70
12215;BME280;6170;42.206;24.142;2023-09-19T13:16:19;98686.25;;;26.12;47.60
12215;BME280;6170;42.206;24.142;2023-09-19T13:18:49;98756.16;;;26.60;47.21
12215;BME280;6170;42.206;24.142;2023-09-19T13:21:28;98819.75;;;27.08;46.70